sensor_id;sensor_type;location;lat;lon;timestamp;temperature;humidity
64670;DHT22;51080;51.690;5.174;2022-10-26T00:04:39;11.40;84.80
64670;DHT22;51080;51.690;5.174;2022-10-26T00:10:33;11.40;84.80
64670;DHT22;51080;51.690;5.174;2022-10-26T00:16:25;11.40;84.80
64670;DHT22;51080;51.690;5.174;2022-10-26T00:22:16;11.40;85.00
64670;DHT22;51080;51.690;5.174;2022-10-26T00:28:05;11.40;85.00
64670;DHT22;51080;51.690;5.174;2022-10-26T00:33:55;11.50;85.00
64670;DHT22;51080;51.690;5.174;2022-10-26T00:39:46;11.50;85.10
64670;DHT22;51080;51.690;5.174;2022-10-26T00:45:38;11.60;85.10
64670;DHT22;51080;51.690;5.174;2022-10-26T00:51:35;11.60;85.10
64670;DHT22;51080;51.690;5.174;2022-10-26T00:57:26;11.60;85.00
64670;DHT22;51080;51.690;5.174;2022-10-26T01:03:16;11.70;85.00
64670;DHT22;51080;51.690;5.174;2022-10-26T01:09:06;11.70;84.90
64670;DHT22;51080;51.690;5.174;2022-10-26T01:14:54;11.80;84.90
64670;DHT22;51080;51.690;5.174;2022-10-26T01:33:14;11.80;84.90
64670;DHT22;51080;51.690;5.174;2022-10-26T01:39:09;11.80;84.90
64670;DHT22;51080;51.690;5.174;2022-10-26T01:45:05;11.90;84.70
64670;DHT22;51080;51.690;5.174;2022-10-26T01:50:57;11.90;84.70
64670;DHT22;51080;51.690;5.174;2022-10-26T01:56:52;11.90;84.70
64670;DHT22;51080;51.690;5.174;2022-10-26T02:02:58;12.00;84.70
64670;DHT22;51080;51.690;5.174;2022-10-26T02:15:13;12.00;84.50
64670;DHT22;51080;51.690;5.174;2022-10-26T02:21:07;12.00;84.50
64670;DHT22;51080;51.690;5.174;2022-10-26T02:27:03;11.90;84.70
64670;DHT22;51080;51.690;5.174;2022-10-26T02:32:56;11.90;84.70
64670;DHT22;51080;51.690;5.174;2022-10-26T02:38:47;11.90;84.80
64670;DHT22;51080;51.690;5.174;2022-10-26T02:44:49;11.90;84.80
64670;DHT22;51080;51.690;5.174;2022-10-26T03:02:42;11.90;84.90
64670;DHT22;51080;51.690;5.174;2022-10-26T03:08:32;11.90;84.90
64670;DHT22;51080;51.690;5.174;2022-10-26T03:14:25;11.90;85.00
64670;DHT22;51080;51.690;5.174;2022-10-26T03:20:14;11.90;85.00
64670;DHT22;51080;51.690;5.174;2022-10-26T03:26:02;12.00;85.00
64670;DHT22;51080;51.690;5.174;2022-10-26T03:31:50;12.00;85.00
64670;DHT22;51080;51.690;5.174;2022-10-26T03:37:40;12.00;85.00
64670;DHT22;51080;51.690;5.174;2022-10-26T03:43:30;12.10;84.90
64670;DHT22;51080;51.690;5.174;2022-10-26T03:49:20;12.10;85.00
64670;DHT22;51080;51.690;5.174;2022-10-26T03:55:09;12.10;84.90
64670;DHT22;51080;51.690;5.174;2022-10-26T04:01:00;12.20;84.80
64670;DHT22;51080;51.690;5.174;2022-10-26T04:06:48;12.20;84.70
64670;DHT22;51080;51.690;5.174;2022-10-26T04:12:38;12.20;84.60
64670;DHT22;51080;51.690;5.174;2022-10-26T04:18:28;12.20;84.60
64670;DHT22;51080;51.690;5.174;2022-10-26T04:24:18;12.20;84.60
64670;DHT22;51080;51.690;5.174;2022-10-26T04:30:10;12.20;84.60
64670;DHT22;51080;51.690;5.174;2022-10-26T04:36:00;12.30;84.60
64670;DHT22;51080;51.690;5.174;2022-10-26T04:41:48;12.30;84.60
64670;DHT22;51080;51.690;5.174;2022-10-26T04:47:36;12.30;84.60
64670;DHT22;51080;51.690;5.174;2022-10-26T04:53:25;12.30;84.50
64670;DHT22;51080;51.690;5.174;2022-10-26T04:59:13;12.30;84.50
64670;DHT22;51080;51.690;5.174;2022-10-26T05:05:01;12.40;84.50
64670;DHT22;51080;51.690;5.174;2022-10-26T05:11:06;12.30;84.50
64670;DHT22;51080;51.690;5.174;2022-10-26T05:17:10;12.30;84.60
64670;DHT22;51080;51.690;5.174;2022-10-26T05:23:15;12.40;84.40
64670;DHT22;51080;51.690;5.174;2022-10-26T05:29:18;12.30;84.20
64670;DHT22;51080;51.690;5.174;2022-10-26T05:35:23;12.30;84.20
64670;DHT22;51080;51.690;5.174;2022-10-26T05:41:26;12.20;84.20
64670;DHT22;51080;51.690;5.174;2022-10-26T05:47:30;12.20;84.20
64670;DHT22;51080;51.690;5.174;2022-10-26T05:53:34;12.10;84.40
64670;DHT22;51080;51.690;5.174;2022-10-26T05:59:38;12.10;84.60
64670;DHT22;51080;51.690;5.174;2022-10-26T06:05:54;12.10;84.80
64670;DHT22;51080;51.690;5.174;2022-10-26T06:11:41;12.20;84.80
64670;DHT22;51080;51.690;5.174;2022-10-26T06:24:00;12.20;84.80
64670;DHT22;51080;51.690;5.174;2022-10-26T06:29:57;12.20;84.90
64670;DHT22;51080;51.690;5.174;2022-10-26T06:35:51;12.10;85.10
64670;DHT22;51080;51.690;5.174;2022-10-26T06:41:39;12.20;85.20
64670;DHT22;51080;51.690;5.174;2022-10-26T06:59:49;12.20;85.30
64670;DHT22;51080;51.690;5.174;2022-10-26T07:05:35;12.30;85.40
64670;DHT22;51080;51.690;5.174;2022-10-26T07:11:19;12.30;85.30
64670;DHT22;51080;51.690;5.174;2022-10-26T07:17:04;12.40;85.20
64670;DHT22;51080;51.690;5.174;2022-10-26T07:23:18;12.40;85.20
64670;DHT22;51080;51.690;5.174;2022-10-26T07:29:03;12.30;85.80
64670;DHT22;51080;51.690;5.174;2022-10-26T07:34:48;12.40;85.30
64670;DHT22;51080;51.690;5.174;2022-10-26T07:40:33;12.40;85.30
64670;DHT22;51080;51.690;5.174;2022-10-26T07:46:18;12.40;85.40
64670;DHT22;51080;51.690;5.174;2022-10-26T07:52:03;12.50;85.90
64670;DHT22;51080;51.690;5.174;2022-10-26T07:58:18;12.70;85.70
64670;DHT22;51080;51.690;5.174;2022-10-26T08:04:03;12.90;86.00
64670;DHT22;51080;51.690;5.174;2022-10-26T08:09:47;13.20;85.30
64670;DHT22;51080;51.690;5.174;2022-10-26T08:15:31;13.40;85.00
64670;DHT22;51080;51.690;5.174;2022-10-26T08:21:15;13.60;84.70
64670;DHT22;51080;51.690;5.174;2022-10-26T08:27:30;13.70;84.20
64670;DHT22;51080;51.690;5.174;2022-10-26T08:33:15;13.80;84.80
64670;DHT22;51080;51.690;5.174;2022-10-26T08:38:59;13.90;84.50
64670;DHT22;51080;51.690;5.174;2022-10-26T08:44:46;14.10;84.60
64670;DHT22;51080;51.690;5.174;2022-10-26T08:50:42;14.20;84.20
64670;DHT22;51080;51.690;5.174;2022-10-26T08:56:48;14.50;84.00
64670;DHT22;51080;51.690;5.174;2022-10-26T09:02:33;14.60;83.60
64670;DHT22;51080;51.690;5.174;2022-10-26T09:09:01;14.80;83.50
64670;DHT22;51080;51.690;5.174;2022-10-26T09:14:56;14.90;83.90
64670;DHT22;51080;51.690;5.174;2022-10-26T09:20:56;15.20;83.00
64670;DHT22;51080;51.690;5.174;2022-10-26T09:27:00;15.50;82.60
64670;DHT22;51080;51.690;5.174;2022-10-26T09:32:49;15.80;81.70
64670;DHT22;51080;51.690;5.174;2022-10-26T09:38:55;16.20;79.80
64670;DHT22;51080;51.690;5.174;2022-10-26T09:44:49;16.40;79.60
64670;DHT22;51080;51.690;5.174;2022-10-26T09:51:05;16.60;78.80
64670;DHT22;51080;51.690;5.174;2022-10-26T09:56:56;16.70;78.00
64670;DHT22;51080;51.690;5.174;2022-10-26T10:02:43;16.80;78.60
64670;DHT22;51080;51.690;5.174;2022-10-26T10:08:28;17.00;79.20
64670;DHT22;51080;51.690;5.174;2022-10-26T10:14:16;17.10;78.10
64670;DHT22;51080;51.690;5.174;2022-10-26T10:20:07;17.20;77.60
64670;DHT22;51080;51.690;5.174;2022-10-26T10:26:09;17.40;77.10
64670;DHT22;51080;51.690;5.174;2022-10-26T10:31:56;17.60;77.70
64670;DHT22;51080;51.690;5.174;2022-10-26T10:37:43;17.80;76.10
64670;DHT22;51080;51.690;5.174;2022-10-26T10:43:29;18.00;75.50
64670;DHT22;51080;51.690;5.174;2022-10-26T10:49:23;18.20;74.60
64670;DHT22;51080;51.690;5.174;2022-10-26T10:55:18;18.40;74.50
64670;DHT22;51080;51.690;5.174;2022-10-26T11:01:03;18.40;74.10
64670;DHT22;51080;51.690;5.174;2022-10-26T11:06:53;18.40;74.00
64670;DHT22;51080;51.690;5.174;2022-10-26T11:12:46;18.30;74.00
64670;DHT22;51080;51.690;5.174;2022-10-26T11:18:36;18.30;74.60
64670;DHT22;51080;51.690;5.174;2022-10-26T11:24:35;18.50;74.00
64670;DHT22;51080;51.690;5.174;2022-10-26T11:30:23;18.60;73.40
64670;DHT22;51080;51.690;5.174;2022-10-26T11:36:12;19.00;71.50
64670;DHT22;51080;51.690;5.174;2022-10-26T11:48:29;19.50;70.00
64670;DHT22;51080;51.690;5.174;2022-10-26T11:54:30;20.10;69.60
64670;DHT22;51080;51.690;5.174;2022-10-26T12:00:20;20.40;68.20
64670;DHT22;51080;51.690;5.174;2022-10-26T12:06:05;20.80;66.40
64670;DHT22;51080;51.690;5.174;2022-10-26T12:12:00;21.20;67.60
64670;DHT22;51080;51.690;5.174;2022-10-26T12:17:54;21.70;64.70
64670;DHT22;51080;51.690;5.174;2022-10-26T12:23:53;22.40;63.80
64670;DHT22;51080;51.690;5.174;2022-10-26T12:29:46;22.80;62.10
64670;DHT22;51080;51.690;5.174;2022-10-26T12:35:34;23.00;61.60
64670;DHT22;51080;51.690;5.174;2022-10-26T12:41:23;23.20;62.30
64670;DHT22;51080;51.690;5.174;2022-10-26T12:47:08;23.40;61.40
64670;DHT22;51080;51.690;5.174;2022-10-26T12:53:04;23.20;61.30
64670;DHT22;51080;51.690;5.174;2022-10-26T12:58:54;23.10;58.80
64670;DHT22;51080;51.690;5.174;2022-10-26T13:04:49;23.20;58.70
64670;DHT22;51080;51.690;5.174;2022-10-26T13:10:37;23.20;57.80
64670;DHT22;51080;51.690;5.174;2022-10-26T13:16:25;23.40;58.40
64670;DHT22;51080;51.690;5.174;2022-10-26T13:22:21;23.60;57.40
64670;DHT22;51080;51.690;5.174;2022-10-26T13:34:17;23.50;57.80
64670;DHT22;51080;51.690;5.174;2022-10-26T13:40:04;23.60;58.90
64670;DHT22;51080;51.690;5.174;2022-10-26T13:45:58;23.30;56.20
64670;DHT22;51080;51.690;5.174;2022-10-26T13:51:44;22.80;56.70
64670;DHT22;51080;51.690;5.174;2022-10-26T13:57:38;22.40;58.20
64670;DHT22;51080;51.690;5.174;2022-10-26T14:03:25;22.00;58.70
64670;DHT22;51080;51.690;5.174;2022-10-26T14:09:14;21.70;60.40
64670;DHT22;51080;51.690;5.174;2022-10-26T14:15:08;21.50;61.10
64670;DHT22;51080;51.690;5.174;2022-10-26T14:21:11;21.40;60.40
64670;DHT22;51080;51.690;5.174;2022-10-26T14:26:56;21.20;61.80
64670;DHT22;51080;51.690;5.174;2022-10-26T14:32:40;21.10;62.10
64670;DHT22;51080;51.690;5.174;2022-10-26T14:38:26;21.00;62.70
64670;DHT22;51080;51.690;5.174;2022-10-26T14:44:21;20.70;62.60
64670;DHT22;51080;51.690;5.174;2022-10-26T14:50:17;20.50;64.00
64670;DHT22;51080;51.690;5.174;2022-10-26T14:56:04;20.40;63.70
64670;DHT22;51080;51.690;5.174;2022-10-26T15:02:09;20.30;65.10
64670;DHT22;51080;51.690;5.174;2022-10-26T15:07:52;20.20;65.50
64670;DHT22;51080;51.690;5.174;2022-10-26T15:13:39;20.10;66.60
64670;DHT22;51080;51.690;5.174;2022-10-26T15:19:26;20.00;66.30
64670;DHT22;51080;51.690;5.174;2022-10-26T15:25:16;19.90;67.20
64670;DHT22;51080;51.690;5.174;2022-10-26T15:37:28;19.60;67.90
64670;DHT22;51080;51.690;5.174;2022-10-26T15:43:13;19.40;68.40
64670;DHT22;51080;51.690;5.174;2022-10-26T15:49:06;19.20;69.00
64670;DHT22;51080;51.690;5.174;2022-10-26T15:54:51;19.20;69.10
64670;DHT22;51080;51.690;5.174;2022-10-26T16:00:35;19.00;69.30
64670;DHT22;51080;51.690;5.174;2022-10-26T16:06:50;18.90;69.80
64670;DHT22;51080;51.690;5.174;2022-10-26T16:12:36;18.70;70.00
64670;DHT22;51080;51.690;5.174;2022-10-26T16:18:22;18.50;70.50
64670;DHT22;51080;51.690;5.174;2022-10-26T16:24:08;18.40;70.90
64670;DHT22;51080;51.690;5.174;2022-10-26T16:29:53;18.20;71.40
64670;DHT22;51080;51.690;5.174;2022-10-26T16:35:41;18.10;71.50
64670;DHT22;51080;51.690;5.174;2022-10-26T16:41:26;17.80;71.90
64670;DHT22;51080;51.690;5.174;2022-10-26T16:47:11;17.70;72.50
64670;DHT22;51080;51.690;5.174;2022-10-26T16:52:55;17.60;72.60
64670;DHT22;51080;51.690;5.174;2022-10-26T16:58:40;17.40;72.60
64670;DHT22;51080;51.690;5.174;2022-10-26T17:04:25;17.20;73.00
64670;DHT22;51080;51.690;5.174;2022-10-26T17:10:09;17.00;73.30
64670;DHT22;51080;51.690;5.174;2022-10-26T17:15:52;16.90;73.60
64670;DHT22;51080;51.690;5.174;2022-10-26T17:21:37;16.70;74.10
64670;DHT22;51080;51.690;5.174;2022-10-26T17:27:22;16.60;74.20
64670;DHT22;51080;51.690;5.174;2022-10-26T17:33:39;16.40;74.60
64670;DHT22;51080;51.690;5.174;2022-10-26T17:39:25;16.30;74.80
64670;DHT22;51080;51.690;5.174;2022-10-26T17:45:39;16.20;74.90
64670;DHT22;51080;51.690;5.174;2022-10-26T17:51:53;16.10;75.40
64670;DHT22;51080;51.690;5.174;2022-10-26T17:57:37;16.10;75.60
64670;DHT22;51080;51.690;5.174;2022-10-26T18:03:21;16.00;75.80
64670;DHT22;51080;51.690;5.174;2022-10-26T18:09:34;15.90;76.30
64670;DHT22;51080;51.690;5.174;2022-10-26T18:15:17;15.80;77.30
64670;DHT22;51080;51.690;5.174;2022-10-26T18:21:07;15.70;76.70
64670;DHT22;51080;51.690;5.174;2022-10-26T18:26:51;15.70;77.50
64670;DHT22;51080;51.690;5.174;2022-10-26T18:32:35;15.60;77.60
64670;DHT22;51080;51.690;5.174;2022-10-26T18:38:19;15.60;78.40
64670;DHT22;51080;51.690;5.174;2022-10-26T18:44:32;15.50;78.70
64670;DHT22;51080;51.690;5.174;2022-10-26T18:50:46;15.50;79.70
64670;DHT22;51080;51.690;5.174;2022-10-26T18:57:00;15.50;79.30
64670;DHT22;51080;51.690;5.174;2022-10-26T19:02:43;15.40;79.00
64670;DHT22;51080;51.690;5.174;2022-10-26T19:08:27;15.30;78.30
64670;DHT22;51080;51.690;5.174;2022-10-26T19:14:10;15.30;78.40
64670;DHT22;51080;51.690;5.174;2022-10-26T19:19:53;15.20;78.40
64670;DHT22;51080;51.690;5.174;2022-10-26T19:26:08;15.10;80.00
64670;DHT22;51080;51.690;5.174;2022-10-26T19:32:26;15.10;78.90
64670;DHT22;51080;51.690;5.174;2022-10-26T19:38:09;15.00;78.90
64670;DHT22;51080;51.690;5.174;2022-10-26T19:43:54;15.00;78.60
64670;DHT22;51080;51.690;5.174;2022-10-26T19:49:39;14.90;78.70
64670;DHT22;51080;51.690;5.174;2022-10-26T19:55:23;14.80;78.90
64670;DHT22;51080;51.690;5.174;2022-10-26T20:01:09;14.70;79.00
64670;DHT22;51080;51.690;5.174;2022-10-26T20:06:55;14.60;79.20
64670;DHT22;51080;51.690;5.174;2022-10-26T20:12:39;14.60;79.20
64670;DHT22;51080;51.690;5.174;2022-10-26T20:18:24;14.50;79.20
64670;DHT22;51080;51.690;5.174;2022-10-26T20:24:09;14.40;79.40
64670;DHT22;51080;51.690;5.174;2022-10-26T20:29:53;14.40;79.50
64670;DHT22;51080;51.690;5.174;2022-10-26T20:35:38;14.30;79.70
64670;DHT22;51080;51.690;5.174;2022-10-26T20:41:23;14.20;79.70
64670;DHT22;51080;51.690;5.174;2022-10-26T20:47:08;14.20;79.90
64670;DHT22;51080;51.690;5.174;2022-10-26T20:53:28;14.10;80.10
64670;DHT22;51080;51.690;5.174;2022-10-26T20:59:47;14.20;80.40
64670;DHT22;51080;51.690;5.174;2022-10-26T21:05:36;14.20;80.80
64670;DHT22;51080;51.690;5.174;2022-10-26T21:11:21;14.30;80.90
64670;DHT22;51080;51.690;5.174;2022-10-26T21:17:07;14.30;81.30
64670;DHT22;51080;51.690;5.174;2022-10-26T21:22:52;14.40;83.20
64670;DHT22;51080;51.690;5.174;2022-10-26T21:28:38;14.50;81.90
64670;DHT22;51080;51.690;5.174;2022-10-26T21:34:24;14.50;81.40
64670;DHT22;51080;51.690;5.174;2022-10-26T21:40:09;14.40;81.30
64670;DHT22;51080;51.690;5.174;2022-10-26T21:45:57;14.40;81.20
64670;DHT22;51080;51.690;5.174;2022-10-26T21:51:42;14.40;81.40
64670;DHT22;51080;51.690;5.174;2022-10-26T21:57:26;14.30;82.10
64670;DHT22;51080;51.690;5.174;2022-10-26T22:03:11;14.30;81.70
64670;DHT22;51080;51.690;5.174;2022-10-26T22:08:56;14.40;82.30
64670;DHT22;51080;51.690;5.174;2022-10-26T22:14:39;14.50;82.70
64670;DHT22;51080;51.690;5.174;2022-10-26T22:20:23;14.50;82.30
64670;DHT22;51080;51.690;5.174;2022-10-26T22:26:13;14.60;82.60
64670;DHT22;51080;51.690;5.174;2022-10-26T22:32:27;14.70;82.50
64670;DHT22;51080;51.690;5.174;2022-10-26T22:38:12;14.70;83.70
64670;DHT22;51080;51.690;5.174;2022-10-26T22:43:56;14.70;82.50
64670;DHT22;51080;51.690;5.174;2022-10-26T22:49:40;14.70;82.00
64670;DHT22;51080;51.690;5.174;2022-10-26T22:55:25;14.60;81.90
64670;DHT22;51080;51.690;5.174;2022-10-26T23:01:14;14.60;82.10
64670;DHT22;51080;51.690;5.174;2022-10-26T23:06:59;14.50;81.70
64670;DHT22;51080;51.690;5.174;2022-10-26T23:12:42;14.40;81.80
64670;DHT22;51080;51.690;5.174;2022-10-26T23:18:26;14.30;82.00
64670;DHT22;51080;51.690;5.174;2022-10-26T23:24:11;14.20;81.90
64670;DHT22;51080;51.690;5.174;2022-10-26T23:29:55;14.10;82.00
64670;DHT22;51080;51.690;5.174;2022-10-26T23:35:39;14.10;81.90
64670;DHT22;51080;51.690;5.174;2022-10-26T23:41:23;14.00;82.00
64670;DHT22;51080;51.690;5.174;2022-10-26T23:47:08;13.90;82.30
64670;DHT22;51080;51.690;5.174;2022-10-26T23:52:52;13.80;82.20
64670;DHT22;51080;51.690;5.174;2022-10-26T23:58:36;13.80;82.40
